createdAt,value
2023-02-14T00:00:27.875Z,10.20
2023-02-14T00:01:27.854Z,9.20
2023-02-14T00:02:27.859Z,8.30
2023-02-14T00:03:27.821Z,8.10
2023-02-14T00:04:27.850Z,8.40
2023-02-14T00:05:27.779Z,7.90
2023-02-14T00:06:27.801Z,8.60
2023-02-14T00:07:27.799Z,6.40
2023-02-14T00:08:27.741Z,7.70
2023-02-14T00:09:27.730Z,7.20
2023-02-14T00:10:27.726Z,6.90
2023-02-14T00:11:27.722Z,10.70
2023-02-14T00:12:27.706Z,6.50
2023-02-14T00:13:27.701Z,7.60
2023-02-14T00:14:27.677Z,8.30
2023-02-14T00:15:27.655Z,6.70
2023-02-14T00:16:27.710Z,6.90
2023-02-14T00:17:27.621Z,9.30
2023-02-14T00:18:27.664Z,8.30
2023-02-14T00:19:27.598Z,8.10
2023-02-14T00:20:27.582Z,7.20
2023-02-14T00:21:27.596Z,8.20
2023-02-14T00:22:27.626Z,7.90
2023-02-14T00:23:27.577Z,6.90
2023-02-14T00:24:27.570Z,6.80
2023-02-14T00:25:27.541Z,7.20
2023-02-14T00:26:28.106Z,8.00
2023-02-14T00:27:27.859Z,8.50
2023-02-14T00:28:27.482Z,6.70
2023-02-14T00:29:27.483Z,9.20
2023-02-14T00:30:27.581Z,6.60
2023-02-14T00:31:27.596Z,7.50
2023-02-14T00:32:27.466Z,6.90
2023-02-14T00:33:27.426Z,7.20
2023-02-14T00:34:27.442Z,6.20
2023-02-14T00:35:27.398Z,7.00
2023-02-14T00:36:27.372Z,8.70
2023-02-14T00:37:27.368Z,5.90
2023-02-14T00:38:27.390Z,8.90
2023-02-14T00:39:27.338Z,5.40
2023-02-14T00:40:27.339Z,6.70
2023-02-14T00:41:27.320Z,6.30
2023-02-14T00:42:27.336Z,6.50
2023-02-14T00:43:27.292Z,6.30
2023-02-14T00:44:27.278Z,7.70
2023-02-14T00:45:27.241Z,6.70
2023-02-14T00:46:27.283Z,7.80
2023-02-14T00:47:27.267Z,6.40
2023-02-14T00:48:27.226Z,6.50
2023-02-14T00:49:27.225Z,6.80
2023-02-14T00:50:27.212Z,6.40
2023-02-14T00:51:27.169Z,6.80
2023-02-14T00:52:27.185Z,6.00
2023-02-14T00:53:27.143Z,6.80
2023-02-14T00:54:27.161Z,6.90
2023-02-14T00:55:27.121Z,5.10
2023-02-14T00:56:27.098Z,5.40
2023-02-14T00:57:27.109Z,6.20
2023-02-14T00:58:27.146Z,6.40
2023-02-14T00:59:27.064Z,5.60
2023-02-14T01:00:27.052Z,6.30
2023-02-14T01:01:27.108Z,6.20
2023-02-14T01:02:27.095Z,7.70
2023-02-14T01:03:27.021Z,6.60
2023-02-14T01:04:27.062Z,7.20
2023-02-14T01:05:26.979Z,7.40
2023-02-14T01:06:27.026Z,5.90
2023-02-14T01:07:26.955Z,6.50
2023-02-14T01:08:26.943Z,6.30
2023-02-14T01:09:26.926Z,7.60
2023-02-14T01:10:26.996Z,6.10
2023-02-14T01:11:28.701Z,7.10
2023-02-14T01:12:26.880Z,6.40
2023-02-14T01:13:26.870Z,6.50
2023-02-14T01:14:26.866Z,6.40
2023-02-14T01:15:26.855Z,6.70
2023-02-14T01:16:26.975Z,6.10
2023-02-14T01:17:26.808Z,6.50
2023-02-14T01:18:26.837Z,5.70
2023-02-14T01:19:27.516Z,6.10
2023-02-14T01:20:26.776Z,5.90
2023-02-14T01:21:26.755Z,7.60
2023-02-14T01:22:26.830Z,6.20
2023-02-14T01:23:26.747Z,7.40
2023-02-14T01:24:26.725Z,6.50
2023-02-14T01:25:26.730Z,5.40
2023-02-14T01:26:26.703Z,7.50
2023-02-14T01:27:26.697Z,7.30
2023-02-14T01:28:26.910Z,5.30
2023-02-14T01:29:26.675Z,6.60
2023-02-14T01:30:26.736Z,6.90
2023-02-14T01:31:26.911Z,6.90
2023-02-14T01:32:26.624Z,6.80
2023-02-14T01:33:26.609Z,5.50
2023-02-14T01:34:26.609Z,6.10
2023-02-14T01:35:26.599Z,5.80
2023-02-14T01:36:26.566Z,6.20
2023-02-14T01:37:26.548Z,5.70
2023-02-14T01:38:26.557Z,5.80
2023-02-14T01:39:26.554Z,5.00
2023-02-14T01:40:26.539Z,5.50
2023-02-14T01:41:26.528Z,5.50
2023-02-14T01:42:26.519Z,7.10
2023-02-14T01:43:26.472Z,4.70
2023-02-14T01:44:26.480Z,5.70
2023-02-14T01:45:26.462Z,4.80
2023-02-14T01:46:26.489Z,6.30
2023-02-14T01:47:26.426Z,5.10
2023-02-14T01:48:26.428Z,4.90
2023-02-14T01:49:26.422Z,6.00
2023-02-14T01:50:26.386Z,5.50
2023-02-14T01:51:26.420Z,5.60
2023-02-14T01:52:26.377Z,5.90
2023-02-14T01:53:26.390Z,6.40
2023-02-14T01:54:26.325Z,8.20
2023-02-14T01:55:26.350Z,5.20
2023-02-14T01:56:26.300Z,5.50
2023-02-14T01:57:26.310Z,6.30
2023-02-14T01:58:26.305Z,5.60
2023-02-14T01:59:26.291Z,7.50
2023-02-14T02:00:26.267Z,8.30
2023-02-14T02:01:26.344Z,7.10
2023-02-14T02:02:26.260Z,8.10
2023-02-14T02:03:26.225Z,6.90
2023-02-14T02:04:26.248Z,7.20
2023-02-14T02:05:26.184Z,7.20
2023-02-14T02:06:26.195Z,7.10
2023-02-14T02:07:26.155Z,7.40
2023-02-14T02:08:26.148Z,6.60
2023-02-14T02:09:26.129Z,6.10
2023-02-14T02:10:26.139Z,6.00
2023-02-14T02:11:26.114Z,6.70
2023-02-14T02:12:26.104Z,7.40
2023-02-14T02:13:26.095Z,8.60
2023-02-14T02:14:26.058Z,6.10
2023-02-14T02:15:26.064Z,6.30
2023-02-14T02:16:26.101Z,7.30
2023-02-14T02:17:26.023Z,7.60
2023-02-14T02:18:26.010Z,6.70
2023-02-14T02:19:26.012Z,7.60
2023-02-14T02:20:25.980Z,8.10
2023-02-14T02:21:25.971Z,6.00
2023-02-14T02:22:25.989Z,7.40
2023-02-14T02:23:25.939Z,7.50
2023-02-14T02:24:25.928Z,8.40
2023-02-14T02:25:25.941Z,8.10
2023-02-14T02:26:25.912Z,9.70
2023-02-14T02:27:26.320Z,8.30
2023-02-14T02:28:25.926Z,8.10
2023-02-14T02:29:25.876Z,6.90
2023-02-14T02:30:25.923Z,8.80
2023-02-14T02:31:25.960Z,8.20
2023-02-14T02:32:25.999Z,8.10
2023-02-14T02:33:25.839Z,8.40
2023-02-14T02:34:25.810Z,7.00
2023-02-14T02:35:25.791Z,7.90
2023-02-14T02:36:25.771Z,8.40
2023-02-14T02:37:25.762Z,8.50
2023-02-14T02:38:25.758Z,8.30
2023-02-14T02:39:25.722Z,8.20
2023-02-14T02:40:25.723Z,8.10
2023-02-14T02:41:25.699Z,7.10
2023-02-14T02:42:25.691Z,5.80
2023-02-14T02:43:25.696Z,7.00
2023-02-14T02:44:25.661Z,7.50
2023-02-14T02:45:25.670Z,7.40
2023-02-14T02:46:25.748Z,8.40
2023-02-14T02:47:25.637Z,7.00
2023-02-14T02:48:25.621Z,8.10
2023-02-14T02:49:25.614Z,8.60
2023-02-14T02:50:25.586Z,7.90
2023-02-14T02:51:25.567Z,8.20
2023-02-14T02:52:25.598Z,7.70
2023-02-14T02:53:25.543Z,8.60
2023-02-14T02:54:25.540Z,7.40
2023-02-14T02:55:25.527Z,8.20
2023-02-14T02:56:25.526Z,7.80
2023-02-14T02:57:25.510Z,7.10
2023-02-14T02:58:25.505Z,8.50
2023-02-14T02:59:25.494Z,8.80
2023-02-14T03:00:25.453Z,8.50
2023-02-14T03:01:25.463Z,8.20
2023-02-14T03:02:25.406Z,7.10
2023-02-14T03:03:25.432Z,7.50
2023-02-14T03:04:25.452Z,8.20
2023-02-14T03:05:25.384Z,9.70
2023-02-14T03:06:25.361Z,7.00
2023-02-14T03:07:25.379Z,8.00
2023-02-14T03:08:25.360Z,8.10
2023-02-14T03:09:25.337Z,8.10
2023-02-14T03:10:25.373Z,8.40
2023-02-14T03:11:25.339Z,8.00
2023-02-14T03:12:25.298Z,10.10
2023-02-14T03:13:25.280Z,8.50
2023-02-14T03:14:25.270Z,8.70
2023-02-14T03:15:25.271Z,7.70
2023-02-14T03:16:25.287Z,10.00
2023-02-14T03:17:25.235Z,8.40
2023-02-14T03:18:25.224Z,8.70
2023-02-14T03:19:25.198Z,8.40
2023-02-14T03:20:25.190Z,7.60
2023-02-14T03:21:25.167Z,9.00
2023-02-14T03:22:25.166Z,8.10
2023-02-14T03:23:25.145Z,9.40
2023-02-14T03:24:25.145Z,8.40
2023-02-14T03:25:25.654Z,7.70
2023-02-14T03:26:25.099Z,9.00
2023-02-14T03:27:25.069Z,7.00
2023-02-14T03:28:25.090Z,8.60
2023-02-14T03:29:25.098Z,10.60
2023-02-14T03:30:25.131Z,9.90
2023-02-14T03:31:25.188Z,8.90
2023-02-14T03:32:25.026Z,9.50
2023-02-14T03:33:25.007Z,7.50
2023-02-14T03:34:25.216Z,8.60
2023-02-14T03:35:24.980Z,9.60
2023-02-14T03:36:24.983Z,10.00
2023-02-14T03:37:24.948Z,9.60
2023-02-14T03:38:24.948Z,9.30
2023-02-14T03:39:24.923Z,10.20
2023-02-14T03:40:24.977Z,7.70
2023-02-14T03:41:24.916Z,9.10
2023-02-14T03:42:24.913Z,9.50
2023-02-14T03:43:25.015Z,7.60
2023-02-14T03:44:24.894Z,11.20
2023-02-14T03:45:24.953Z,8.40
2023-02-14T03:46:24.907Z,8.00
2023-02-14T03:47:24.827Z,7.50
2023-02-14T03:48:24.862Z,11.30
2023-02-14T03:49:24.792Z,8.40
2023-02-14T03:50:24.784Z,9.30
2023-02-14T03:51:24.766Z,9.90
2023-02-14T03:52:24.775Z,9.70
2023-02-14T03:53:24.745Z,9.50
2023-02-14T03:54:24.764Z,8.20
2023-02-14T03:55:24.715Z,9.60
2023-02-14T03:56:24.697Z,7.70
2023-02-14T03:57:24.714Z,9.80
2023-02-14T03:58:24.714Z,10.50
2023-02-14T03:59:24.707Z,8.70
2023-02-14T04:00:24.640Z,9.60
2023-02-14T04:01:24.724Z,9.30
2023-02-14T04:02:24.633Z,7.50
2023-02-14T04:03:24.655Z,8.40
2023-02-14T04:04:24.617Z,9.20
2023-02-14T04:05:24.758Z,7.60
2023-02-14T04:06:24.619Z,8.70
2023-02-14T04:07:24.574Z,8.30
2023-02-14T04:08:24.569Z,8.40
2023-02-14T04:09:24.541Z,9.60
2023-02-14T04:10:24.547Z,9.00
2023-02-14T04:11:24.784Z,10.00
2023-02-14T04:12:37.086Z,10.20
2023-02-14T04:13:25.507Z,9.30
2023-02-14T04:14:24.452Z,8.30
2023-02-14T04:15:24.447Z,9.90
2023-02-14T04:16:24.667Z,10.10
2023-02-14T04:17:24.433Z,9.00
2023-02-14T04:18:24.420Z,9.00
2023-02-14T04:19:24.401Z,9.80
2023-02-14T04:20:24.386Z,10.40
2023-02-14T04:21:24.371Z,9.20
2023-02-14T04:22:24.370Z,10.10
2023-02-14T04:23:24.374Z,10.70
2023-02-14T04:24:24.333Z,10.60
2023-02-14T04:25:24.378Z,10.30
2023-02-14T04:26:24.320Z,12.50
2023-02-14T04:27:24.296Z,10.20
2023-02-14T04:28:24.292Z,9.20
2023-02-14T04:29:24.253Z,10.50
2023-02-14T04:30:24.342Z,9.80
2023-02-14T04:31:24.411Z,9.80
2023-02-14T04:32:24.386Z,9.70
2023-02-14T04:33:24.233Z,10.30
2023-02-14T04:34:24.219Z,11.10
2023-02-14T04:35:24.182Z,10.10
2023-02-14T04:36:24.150Z,12.90
2023-02-14T04:37:24.159Z,10.40
2023-02-14T04:38:24.320Z,12.90
2023-02-14T04:39:24.134Z,11.70
2023-02-14T04:40:24.150Z,11.80
2023-02-14T04:41:24.111Z,14.20
2023-02-14T04:42:24.116Z,11.00
2023-02-14T04:43:24.091Z,11.40
2023-02-14T04:44:24.057Z,12.20
2023-02-14T04:45:24.096Z,11.90
2023-02-14T04:46:24.126Z,10.20
2023-02-14T04:47:24.030Z,13.60
2023-02-14T04:48:24.017Z,11.40
2023-02-14T04:49:24.029Z,13.10
2023-02-14T04:50:23.982Z,11.80
2023-02-14T04:51:25.157Z,11.30
2023-02-14T04:52:23.980Z,12.10
2023-02-14T04:53:24.079Z,11.00
2023-02-14T04:54:23.933Z,12.10
2023-02-14T04:55:23.930Z,10.80
2023-02-14T04:56:23.930Z,13.30
2023-02-14T04:57:23.878Z,11.70
2023-02-14T04:58:23.890Z,12.30
2023-02-14T04:59:25.063Z,11.80
2023-02-14T05:00:23.865Z,13.50
2023-02-14T05:01:23.835Z,13.10
2023-02-14T05:02:23.911Z,14.80
2023-02-14T05:03:23.861Z,13.00
2023-02-14T05:04:23.829Z,11.60
2023-02-14T05:05:23.805Z,11.40
2023-02-14T05:06:23.758Z,12.00
2023-02-14T05:07:23.750Z,13.10
2023-02-14T05:08:23.735Z,12.10
2023-02-14T05:09:23.735Z,14.80
2023-02-14T05:10:23.728Z,13.00
2023-02-14T05:11:23.712Z,14.00
2023-02-14T05:12:23.716Z,15.20
2023-02-14T05:13:23.703Z,17.40
2023-02-14T05:14:23.665Z,17.10
2023-02-14T05:15:23.656Z,14.10
2023-02-14T05:16:23.814Z,15.50
2023-02-14T05:17:23.612Z,14.00
2023-02-14T05:18:23.637Z,14.30
2023-02-14T05:19:23.604Z,15.20
2023-02-14T05:20:23.615Z,16.60
2023-02-14T05:21:23.566Z,16.30
2023-02-14T05:22:23.591Z,15.80
2023-02-14T05:23:23.539Z,16.80
2023-02-14T05:24:23.563Z,17.90
2023-02-14T05:25:23.517Z,17.10
2023-02-14T05:26:23.511Z,16.50
2023-02-14T05:27:23.475Z,17.50
2023-02-14T05:28:23.519Z,16.10
2023-02-14T05:29:24.531Z,17.00
2023-02-14T05:30:23.492Z,17.50
2023-02-14T05:31:23.641Z,15.20
2023-02-14T05:32:23.405Z,15.80
2023-02-14T05:33:23.419Z,19.40
2023-02-14T05:34:23.400Z,15.80
2023-02-14T05:35:23.397Z,16.00
2023-02-14T05:36:23.362Z,15.70
2023-02-14T05:37:23.381Z,15.20
2023-02-14T05:38:23.359Z,17.00
2023-02-14T05:39:23.348Z,20.20
2023-02-14T05:40:57.119Z,16.80
2023-02-14T05:41:59.041Z,15.60
2023-02-14T05:42:56.669Z,16.90
2023-02-14T05:43:56.618Z,16.90
2023-02-14T05:44:56.718Z,17.40
2023-02-14T05:45:56.625Z,16.60
2023-02-14T05:46:57.664Z,17.00
2023-02-14T05:47:56.550Z,18.30
2023-02-14T05:48:56.696Z,18.50
2023-02-14T05:49:56.529Z,17.60
2023-02-14T05:50:58.011Z,17.90
2023-02-14T05:51:56.520Z,16.50
2023-02-14T05:52:56.556Z,16.90
2023-02-14T05:53:56.460Z,18.50
2023-02-14T05:54:56.591Z,15.80
2023-02-14T05:55:56.454Z,17.60
2023-02-14T05:56:56.646Z,15.40
2023-02-14T05:57:56.453Z,18.30
2023-02-14T05:58:56.572Z,15.90
2023-02-14T05:59:56.402Z,15.90
2023-02-14T06:00:56.493Z,18.00
2023-02-14T06:01:56.432Z,16.80
2023-02-14T06:02:56.421Z,16.20
2023-02-14T06:03:56.370Z,18.00
2023-02-14T06:04:56.464Z,15.50
2023-02-14T06:05:56.323Z,17.10
2023-02-14T06:06:57.256Z,13.30
2023-02-14T06:07:56.348Z,15.40
2023-02-14T06:08:56.358Z,15.80
2023-02-14T06:09:56.294Z,15.70
2023-02-14T06:10:56.374Z,15.90
2023-02-14T06:11:56.243Z,16.10
2023-02-14T06:12:56.324Z,17.40
2023-02-14T06:13:56.223Z,14.10
2023-02-14T06:15:17.397Z,14.90
2023-02-14T06:15:56.210Z,13.90
2023-02-14T06:16:56.521Z,13.40
2023-02-14T06:17:56.175Z,13.90
2023-02-14T06:18:56.292Z,12.70
2023-02-14T06:19:56.160Z,13.50
2023-02-14T06:20:56.294Z,13.80
2023-02-14T06:21:56.124Z,14.30
2023-02-14T06:22:56.201Z,14.40
2023-02-14T06:23:56.091Z,12.00
2023-02-14T06:24:58.355Z,11.60
2023-02-14T06:25:56.068Z,14.80
2023-02-14T06:26:56.133Z,12.40
2023-02-14T06:27:56.036Z,11.50
2023-02-14T06:28:56.224Z,13.10
2023-02-14T06:29:56.079Z,15.00
2023-02-14T06:30:56.255Z,11.50
2023-02-14T06:31:56.100Z,12.90
2023-02-14T06:32:56.141Z,11.90
2023-02-14T06:33:55.962Z,12.10
2023-02-14T06:34:56.112Z,12.30
2023-02-14T06:35:55.947Z,10.30
2023-02-14T06:36:58.033Z,11.50
2023-02-14T06:37:55.915Z,10.80
2023-02-14T06:38:56.061Z,11.90
2023-02-14T06:39:55.891Z,14.00
2023-02-14T06:40:56.031Z,11.00
2023-02-14T06:41:55.861Z,13.40
2023-02-14T06:42:56.974Z,10.80
2023-02-14T06:43:55.831Z,11.40
2023-02-14T06:44:56.984Z,11.00
2023-02-14T06:45:55.951Z,9.80
2023-02-14T06:46:56.020Z,10.90
2023-02-14T06:47:55.780Z,11.00
2023-02-14T06:48:55.866Z,11.70
2023-02-14T06:49:55.751Z,11.00
2023-02-14T06:50:55.855Z,10.50
2023-02-14T06:51:55.755Z,10.50
2023-02-14T06:52:55.832Z,9.70
2023-02-14T06:53:55.710Z,10.50
2023-02-14T06:54:55.750Z,9.00
2023-02-14T06:55:55.679Z,11.60
2023-02-14T06:56:55.778Z,9.30
2023-02-14T06:57:55.673Z,11.30
2023-02-14T06:58:55.732Z,9.40
2023-02-14T06:59:55.628Z,12.10
2023-02-14T07:00:55.769Z,10.90
2023-02-14T07:01:55.609Z,13.30
2023-02-14T07:02:58.946Z,8.80
2023-02-14T07:03:55.571Z,11.80
2023-02-14T07:04:55.656Z,10.60
2023-02-14T07:05:55.559Z,11.10
2023-02-14T07:06:55.668Z,11.30
2023-02-14T07:07:55.540Z,9.70
2023-02-14T07:08:58.833Z,11.70
2023-02-14T07:09:55.499Z,10.60
2023-02-14T07:10:58.251Z,8.90
2023-02-14T07:11:55.465Z,11.00
2023-02-14T07:12:55.576Z,9.80
2023-02-14T07:13:55.441Z,11.10
2023-02-14T07:14:55.570Z,10.60
2023-02-14T07:15:55.465Z,9.90
2023-02-14T07:16:55.536Z,9.60
2023-02-14T07:17:55.387Z,11.80
2023-02-14T07:18:55.497Z,10.80
2023-02-14T07:19:55.387Z,9.00
2023-02-14T07:20:55.566Z,11.40
2023-02-14T07:21:55.368Z,11.40
2023-02-14T07:22:55.350Z,11.30
2023-02-14T07:23:55.328Z,9.60
2023-02-14T07:24:55.411Z,11.00
2023-02-14T07:25:55.276Z,9.70
2023-02-14T07:26:55.379Z,9.10
2023-02-14T07:27:55.272Z,11.70
2023-02-14T07:28:55.363Z,12.70
2023-02-14T07:29:55.255Z,11.00
2023-02-14T07:30:56.509Z,10.90
2023-02-14T07:31:55.467Z,12.90
2023-02-14T07:32:55.275Z,12.80
2023-02-14T07:33:55.185Z,9.70
2023-02-14T07:34:55.311Z,11.80
2023-02-14T07:35:55.158Z,13.90
2023-02-14T07:36:56.225Z,12.70
2023-02-14T07:37:55.135Z,12.60
2023-02-14T07:38:56.307Z,12.70
2023-02-14T07:39:55.109Z,10.80
2023-02-14T07:40:55.165Z,9.70
2023-02-14T07:41:55.081Z,11.40
2023-02-14T07:42:55.212Z,12.20
2023-02-14T07:43:55.057Z,11.00
2023-02-14T07:44:55.204Z,11.90
2023-02-14T07:45:55.056Z,11.40
2023-02-14T07:46:56.203Z,13.60
2023-02-14T07:47:55.024Z,10.80
2023-02-14T07:48:55.117Z,10.20
2023-02-14T07:49:54.971Z,12.10
2023-02-14T07:50:55.442Z,9.60
2023-02-14T07:51:54.968Z,11.40
2023-02-14T07:52:55.093Z,11.40
2023-02-14T07:53:54.955Z,10.80
2023-02-14T07:54:55.162Z,10.20
2023-02-14T07:55:54.893Z,10.00
2023-02-14T07:56:55.001Z,11.10
2023-02-14T07:57:54.875Z,10.50
2023-02-14T07:58:55.000Z,10.50
2023-02-14T07:59:54.836Z,12.40
2023-02-14T08:00:55.032Z,12.20
2023-02-14T08:01:54.842Z,10.50
2023-02-14T08:02:54.911Z,11.60
2023-02-14T08:03:54.946Z,12.30
2023-02-14T08:04:54.932Z,12.00
2023-02-14T08:05:54.779Z,10.80
2023-02-14T08:06:55.967Z,10.70
2023-02-14T08:07:54.742Z,12.00
2023-02-14T08:08:54.818Z,11.50
2023-02-14T08:09:54.720Z,11.50
2023-02-14T08:10:54.800Z,12.00
2023-02-14T08:11:54.687Z,13.70
2023-02-14T08:12:54.858Z,13.40
2023-02-14T08:13:54.660Z,15.20
2023-02-14T08:14:54.827Z,11.80
2023-02-14T08:15:54.657Z,14.00
2023-02-14T08:16:54.815Z,14.30
2023-02-14T08:17:54.654Z,12.80
2023-02-14T08:18:56.735Z,14.00
2023-02-14T08:19:54.585Z,13.50
2023-02-14T08:20:54.736Z,15.30
2023-02-14T08:21:54.558Z,11.70
2023-02-14T08:22:54.707Z,13.30
2023-02-14T08:23:54.540Z,13.40
2023-02-14T08:24:55.666Z,11.40
2023-02-14T08:25:54.521Z,11.50
2023-02-14T08:26:54.528Z,12.60
2023-02-14T08:27:54.474Z,13.50
2023-02-14T08:28:54.520Z,12.00
2023-02-14T08:29:54.509Z,12.10
2023-02-14T08:30:55.626Z,14.30
2023-02-14T08:31:54.522Z,13.00
2023-02-14T08:32:54.609Z,13.40
2023-02-14T08:33:54.398Z,13.50
2023-02-14T08:34:54.526Z,14.20
2023-02-14T08:35:54.373Z,13.80
2023-02-14T08:36:56.444Z,12.50
2023-02-14T08:37:54.344Z,14.90
2023-02-14T08:38:54.433Z,11.60
2023-02-14T08:39:54.317Z,15.00
2023-02-14T08:40:54.431Z,13.80
2023-02-14T08:41:54.325Z,14.40
2023-02-14T08:42:54.462Z,14.50
2023-02-14T08:43:54.268Z,14.40
2023-02-14T08:44:54.450Z,12.90
2023-02-14T08:45:54.263Z,15.90
2023-02-14T08:47:15.341Z,14.90
2023-02-14T08:47:54.205Z,15.80
2023-02-14T08:48:54.289Z,13.60
2023-02-14T08:49:54.689Z,16.30
2023-02-14T08:50:54.672Z,16.90
2023-02-14T08:51:54.495Z,15.30
2023-02-14T08:52:54.348Z,15.80
2023-02-14T08:53:54.138Z,18.70
2023-02-14T08:54:54.174Z,21.50
2023-02-14T08:55:54.134Z,19.30
2023-02-14T08:56:55.984Z,17.70
2023-02-14T08:57:54.655Z,20.80
2023-02-14T08:58:54.453Z,16.80
2023-02-14T08:59:54.102Z,18.00
2023-02-14T09:02:03.483Z,19.30
2023-02-14T09:03:03.364Z,18.00
2023-02-14T09:04:03.590Z,17.60
2023-02-14T09:05:03.341Z,17.50
2023-02-14T09:06:24.416Z,17.80
2023-02-14T09:07:03.303Z,19.00
2023-02-14T09:08:03.569Z,19.10
2023-02-14T09:09:03.273Z,19.10
2023-02-14T09:10:03.315Z,17.60
2023-02-14T09:11:03.443Z,18.00
2023-02-14T09:12:03.366Z,21.80
2023-02-14T09:13:03.237Z,16.90
2023-02-14T09:14:03.334Z,19.20
2023-02-14T09:15:03.200Z,20.20
2023-02-14T09:16:03.392Z,18.70
2023-02-14T09:17:03.266Z,16.80
2023-02-14T09:18:03.297Z,21.00
2023-02-14T09:19:03.141Z,17.90
2023-02-14T09:20:03.223Z,19.40
2023-02-14T09:21:03.249Z,19.50
2023-02-14T09:22:03.233Z,19.10
2023-02-14T09:23:03.092Z,18.00
2023-02-14T09:24:03.249Z,18.00
2023-02-14T09:25:03.068Z,17.20
2023-02-14T09:26:03.242Z,20.90
2023-02-14T09:27:03.321Z,16.30
2023-02-14T09:28:04.170Z,17.70
2023-02-14T09:29:03.025Z,18.70
2023-02-14T09:30:03.129Z,18.20
2023-02-14T09:31:03.215Z,18.70
2023-02-14T09:32:03.233Z,17.60
2023-02-14T09:33:02.952Z,20.30
2023-02-14T09:34:03.133Z,19.60
2023-02-14T09:35:02.920Z,18.70
2023-02-14T09:36:03.065Z,19.80
2023-02-14T09:37:04.371Z,16.90
2023-02-14T09:38:02.951Z,17.50
2023-02-14T09:39:02.871Z,19.30
2023-02-14T09:40:03.051Z,18.50
2023-02-14T09:41:02.871Z,16.60
2023-02-14T09:42:02.971Z,22.00
2023-02-14T09:43:02.819Z,18.50
2023-02-14T09:44:02.961Z,19.70
2023-02-14T09:45:02.799Z,17.40
2023-02-14T09:46:02.951Z,19.30
2023-02-14T09:47:02.772Z,16.50
2023-02-14T09:48:02.902Z,17.40
2023-02-14T09:49:02.767Z,16.10
2023-02-14T09:50:02.905Z,17.20
2023-02-14T09:51:02.833Z,18.10
2023-02-14T09:52:04.950Z,18.80
2023-02-14T09:53:02.689Z,18.20
2023-02-14T09:54:02.927Z,18.70
2023-02-14T09:55:02.716Z,18.90
2023-02-14T09:56:02.770Z,16.70
2023-02-14T09:57:02.652Z,19.70
2023-02-14T09:58:03.672Z,18.00
2023-02-14T09:59:02.622Z,18.20
2023-02-14T10:00:03.721Z,17.90
2023-02-14T10:01:02.942Z,18.50
2023-02-14T10:02:02.797Z,17.20
2023-02-14T10:03:02.553Z,18.70
2023-02-14T10:04:02.660Z,16.70
2023-02-14T10:05:02.531Z,18.50
2023-02-14T10:06:02.598Z,18.10
2023-02-14T10:07:02.500Z,19.60
2023-02-14T10:08:03.615Z,19.00
2023-02-14T10:09:02.481Z,18.20
2023-02-14T10:10:02.569Z,18.30
2023-02-14T10:11:02.475Z,19.30
2023-02-14T10:12:02.611Z,17.50
2023-02-14T10:13:02.447Z,17.50
2023-02-14T10:14:02.492Z,18.60
2023-02-14T10:15:02.424Z,18.80
2023-02-14T10:16:02.476Z,17.20
2023-02-14T10:17:02.377Z,18.00
2023-02-14T10:18:02.508Z,20.60
2023-02-14T10:19:02.358Z,21.20
2023-02-14T10:20:02.489Z,17.30
2023-02-14T10:21:02.720Z,19.00
2023-02-14T10:22:02.500Z,16.40
2023-02-14T10:23:02.311Z,22.90
2023-02-14T10:24:02.298Z,19.80
2023-02-14T10:25:02.258Z,18.50
2023-02-14T10:26:02.400Z,15.50
2023-02-14T10:27:02.229Z,20.60
2023-02-14T10:28:02.396Z,17.30
2023-02-14T10:29:02.218Z,18.20
2023-02-14T10:30:02.373Z,18.10
2023-02-14T10:31:02.512Z,17.80
2023-02-14T10:32:02.374Z,16.20
2023-02-14T10:33:02.168Z,19.80
2023-02-14T10:34:02.289Z,18.60
2023-02-14T10:35:02.129Z,19.20
2023-02-14T10:36:02.241Z,18.80
2023-02-14T10:37:02.140Z,19.70
2023-02-14T10:38:06.402Z,19.10
2023-02-14T10:39:02.086Z,18.90
2023-02-14T10:40:02.216Z,20.10
2023-02-14T10:41:02.190Z,18.90
2023-02-14T10:42:02.138Z,20.60
2023-02-14T10:43:02.017Z,15.90
2023-02-14T10:44:02.127Z,16.50
2023-02-14T10:45:02.000Z,18.60
2023-02-14T10:46:03.162Z,18.40
2023-02-14T10:47:01.982Z,18.50
2023-02-14T10:48:02.058Z,18.40
2023-02-14T10:49:01.950Z,20.10
2023-02-14T10:50:02.137Z,21.50
2023-02-14T10:51:02.325Z,18.80
2023-02-14T10:52:02.020Z,15.40
2023-02-14T10:53:01.986Z,22.80
2023-02-14T10:54:02.044Z,18.80
2023-02-14T10:55:01.877Z,21.10
2023-02-14T10:56:02.050Z,20.20
2023-02-14T10:57:01.868Z,20.30
2023-02-14T10:58:22.988Z,20.80
2023-02-14T10:59:01.830Z,19.80
2023-02-14T11:00:01.890Z,18.60
2023-02-14T11:01:02.276Z,22.30
2023-02-14T11:02:01.939Z,18.20
2023-02-14T11:03:01.758Z,19.50
2023-02-14T11:04:02.028Z,18.20
2023-02-14T11:05:01.731Z,19.50
2023-02-14T11:06:02.882Z,19.30
2023-02-14T11:07:01.716Z,17.90
2023-02-14T11:08:01.849Z,19.80
2023-02-14T11:09:01.734Z,20.90
2023-02-14T11:10:02.787Z,20.20
2023-02-14T11:11:02.054Z,19.20
2023-02-14T11:12:01.771Z,22.00
2023-02-14T11:13:01.646Z,18.40
2023-02-14T11:14:02.858Z,17.60
2023-02-14T11:15:01.617Z,19.80
2023-02-14T11:16:02.155Z,19.40
2023-02-14T11:17:01.626Z,18.70
2023-02-14T11:18:01.680Z,19.20
2023-02-14T11:19:01.565Z,19.30
2023-02-14T11:20:01.721Z,19.10
2023-02-14T11:21:01.623Z,20.50
2023-02-14T11:22:01.667Z,17.60
2023-02-14T11:23:01.497Z,18.50
2023-02-14T11:24:02.597Z,18.40
2023-02-14T11:25:03.496Z,19.50
2023-02-14T11:26:01.810Z,18.50
2023-02-14T11:27:01.447Z,19.90
2023-02-14T11:28:01.547Z,20.30
2023-02-14T11:29:01.655Z,19.10
2023-02-14T11:30:01.509Z,25.40
2023-02-14T11:31:01.850Z,18.30
2023-02-14T11:32:01.649Z,19.80
2023-02-14T11:33:01.369Z,18.30
2023-02-14T11:34:04.375Z,18.30
2023-02-14T11:35:01.331Z,18.30
2023-02-14T11:36:01.486Z,17.30
2023-02-14T11:37:01.308Z,15.50
2023-02-14T11:38:01.375Z,15.70
2023-02-14T11:39:01.293Z,16.20
2023-02-14T11:40:01.432Z,16.90
2023-02-14T11:41:01.563Z,15.60
2023-02-14T11:42:02.428Z,15.50
2023-02-14T11:43:13.971Z,16.20
2023-02-14T11:44:02.246Z,15.20
2023-02-14T11:45:01.315Z,15.20
2023-02-14T11:46:01.206Z,15.90
2023-02-14T11:47:01.326Z,17.70
2023-02-14T11:48:01.166Z,15.20
2023-02-14T11:49:01.299Z,14.50
2023-02-14T11:50:01.268Z,15.10
2023-02-14T11:51:01.530Z,15.60
2023-02-14T11:52:01.126Z,16.90
2023-02-14T11:53:01.317Z,15.30
2023-02-14T11:54:01.090Z,15.40
2023-02-14T11:55:03.289Z,17.00
2023-02-14T11:56:01.133Z,17.00
2023-02-14T11:57:01.271Z,17.60
2023-02-14T11:58:01.016Z,14.30
2023-02-14T11:59:01.047Z,19.10
2023-02-14T12:00:01.015Z,15.40
2023-02-14T12:01:02.255Z,16.10
2023-02-14T12:02:01.006Z,15.60
2023-02-14T12:03:01.200Z,18.10
2023-02-14T12:04:01.047Z,14.80
2023-02-14T12:05:01.073Z,18.60
2023-02-14T12:06:00.919Z,17.30
2023-02-14T12:07:01.088Z,16.20
2023-02-14T12:08:00.937Z,15.30
2023-02-14T12:09:00.934Z,16.70
2023-02-14T12:10:00.856Z,15.90
2023-02-14T12:11:01.282Z,14.50
2023-02-14T12:12:00.878Z,17.10
2023-02-14T12:13:01.005Z,16.50
2023-02-14T12:14:00.840Z,15.90
2023-02-14T12:15:00.949Z,14.90
2023-02-14T12:16:00.802Z,15.00
2023-02-14T12:17:00.971Z,18.20
2023-02-14T12:18:00.817Z,18.50
2023-02-14T12:19:00.826Z,14.20
2023-02-14T12:20:00.761Z,18.30
2023-02-14T12:21:01.270Z,16.90
2023-02-14T12:22:00.718Z,14.30
2023-02-14T12:23:00.877Z,14.40
2023-02-14T12:24:00.682Z,15.10
2023-02-14T12:25:00.810Z,17.10
2023-02-14T12:26:00.668Z,16.50
2023-02-14T12:27:01.381Z,16.50
2023-02-14T12:28:00.635Z,15.80
2023-02-14T12:29:00.678Z,17.40
2023-02-14T12:30:00.678Z,16.80
2023-02-14T12:31:21.763Z,20.90
2023-02-14T12:32:00.753Z,15.90
2023-02-14T12:33:00.646Z,18.60
2023-02-14T12:34:00.557Z,17.90
2023-02-14T12:35:00.581Z,16.80
2023-02-14T12:36:00.536Z,16.20
2023-02-14T12:37:00.565Z,14.70
2023-02-14T12:38:04.772Z,21.30
2023-02-14T12:39:00.504Z,20.60
2023-02-14T12:40:00.645Z,15.70
2023-02-14T12:41:00.715Z,17.00
2023-02-14T12:42:00.561Z,15.70
2023-02-14T12:43:00.441Z,21.70
2023-02-14T12:44:00.508Z,16.30
2023-02-14T12:45:00.414Z,14.80
2023-02-14T12:46:00.772Z,16.70
2023-02-14T12:47:00.372Z,17.60
2023-02-14T12:48:01.494Z,18.30
2023-02-14T12:49:00.370Z,18.30
2023-02-14T12:50:00.406Z,15.20
2023-02-14T12:51:00.754Z,15.90
2023-02-14T12:52:01.380Z,18.10
2023-02-14T12:53:00.304Z,16.20
2023-02-14T12:54:00.421Z,20.90
2023-02-14T12:55:00.295Z,15.20
2023-02-14T12:56:00.419Z,15.00
2023-02-14T12:57:00.244Z,17.40
2023-02-14T12:58:00.354Z,15.90
2023-02-14T12:59:00.212Z,15.60
2023-02-14T13:00:00.287Z,14.60
2023-02-14T13:01:00.517Z,17.10
2023-02-14T13:02:00.383Z,20.00
2023-02-14T13:03:00.231Z,16.30